• Join FlightAware (Why Join?)
  • Login
  • US Flag 
07:33AM EDT


 

Airport Tracker/Info


-or-


 

Live Flight TrackerFlight Track Log ✈ GGN7280 ✈ 28-Aug-2013 ✈ CYYZ - KALB

Flight Track Log - Related Links

Times and Time Zones

All times are in EDT time to prevent confusion due to time zone crossing. See the GGN7280 flight status page for this flight to view local times or setup timezone preferences in your user account.

Time Position Orientation Groundspeed Altitude Reporting Facility
EDT Latitude Longitude Course Direction KTS MPH feet Rate Location/Type
09:27AM 43.6500 -79.6167 65° Northeast 10 12 600  Level Toronto Center
09:28AM 43.6667 -79.5667 65° Northeast 130 150 1,800 1,320 Climbing Toronto Center
09:29AM 43.6667 -79.5000 90° East 180 207 3,300 1,320 Climbing Toronto Center
09:30AM 43.6333 -79.4333 125° Southeast 200 230 4,500 1,140 Climbing Toronto Center
09:31AM 43.6000 -79.3500 119° Southeast 210 242 5,600 1,200 Climbing Toronto Center
09:32AM 43.5667 -79.2833 125° Southeast 210 242 6,900 1,260 Climbing Toronto Center
09:33AM 43.5333 -79.2167 125° Southeast 220 253 8,200 1,080 Climbing Toronto Center
09:34AM 43.5000 -79.1500 125° Southeast 210 242 9,100 420 Climbing Toronto Center
09:35AM 43.5000 -79.0667 90° East 240 276 9,100 240 Level Toronto Center
09:36AM 43.4833 -78.9667 103° East 250 288 9,600 1,140 Climbing Toronto Center
09:37AM 43.4833 -78.8667 90° East 230 265 11,400 1,560 Climbing Toronto Center
09:38AM 43.4667 -78.7833 105° East 220 253 12,800 1,440 Climbing Toronto Center
09:39AM 43.4500 -78.6833 103° East 230 265 14,300 1,440 Climbing Toronto Center
09:40AM 43.4500 -78.6167 90° East 240 276 15,700 1,200 Climbing Toronto Center
09:41AM 43.4333 -78.5000 101° East 240 276 16,700 1,020 Climbing Toronto Center
09:42AM 43.4167 -78.4167 105° East 250 288 17,800 1,320 Climbing Toronto Center
09:43AM 43.4183 -78.3625 88° East 240 276 19,400 1,680 Climbing Cleveland Center
09:44AM 43.4086 -78.2828 100° East 226 260 21,300 1,500 Climbing Cleveland Center
09:45AM 43.3986 -78.2061 100° East 213 245 22,400 1,080 Climbing Cleveland Center
09:46AM 43.3886 -78.1236 99° East 207 238 23,500 1,020 Climbing Cleveland Center
09:47AM 43.3786 -78.0442 100° East 207 238 24,500 720 Climbing Cleveland Center
09:48AM 43.3681 -77.9531 99° East 219 252 25,000 240 Climbing Cleveland Center
09:49AM 43.3511 -77.8483 103° East 248 285 25,000  Level Cleveland Center
09:50AM 43.3381 -77.7403 99° East 273 314 25,000  Level Cleveland Center
09:51AM 43.3250 -77.6294 99° East 290 334 25,000  Level Cleveland Center
09:52AM 43.3072 -77.5106 102° East 290 334 25,000  Level Cleveland Center
09:53AM 43.2917 -77.4000 101° East 295 339 25,000  Level Cleveland Center
09:55AM 43.2500 -77.1667 104° East 290 334 25,000  Level Toronto Center
09:56AM 43.2333 -77.0500 101° East 290 334 25,000  Level Toronto Center
09:57AM 43.2167 -76.9500 103° East 290 334 25,000  Level Toronto Center
09:58AM 43.2167 -76.8500 90° East 290 334 25,000  Level Toronto Center
09:59AM 43.2000 -76.7333 101° East 290 334 25,000  Level Toronto Center
10:00AM 43.1667 -76.6167 111° Southeast 280 322 25,000  Level Toronto Center
10:01AM 43.1667 -76.5167 90° East 280 322 25,000  Level Toronto Center
10:02AM 43.1500 -76.4333 105° East 280 322 25,000  Level Toronto Center
10:03AM 43.1461 -76.3533 94° East 279 321 25,000 -180 Level Boston Center
10:04AM 43.1331 -76.2472 100° East 279 321 24,700 -540 Descending Boston Center
10:05AM 43.1158 -76.1353 102° East 284 327 24,000 -900 Descending Boston Center
10:06AM 43.0986 -76.0233 102° East 289 333 23,000 -1,020 Descending Boston Center
10:07AM 43.0831 -75.9172 101° East 289 333 22,000 -1,020 Descending Boston Center
10:08AM 43.0675 -75.8083 101° East 289 333 21,000 -1,080 Descending Boston Center
10:09AM 43.0500 -75.6992 102° East 289 333 19,900 -1,080 Descending Boston Center
10:10AM 43.0342 -75.5875 101° East 289 333 18,900 -1,080 Descending Boston Center
10:11AM 43.0183 -75.4789 101° East 289 333 17,800 -1,140 Descending Boston Center
10:12AM 43.0006 -75.3700 103° East 294 338 16,700 -1,140 Descending Boston Center
10:13AM 42.9825 -75.2614 103° East 294 338 15,600 -1,260 Descending Boston Center
10:14AM 42.9664 -75.1414 100° East 304 350 14,200 -1,320 Descending Boston Center
10:15AM 42.9483 -75.0300 102° East 304 350 13,000 -1,200 Descending Boston Center
10:16AM 42.9336 -74.9442 103° East 306 352 12,100 -1,020 Descending Boston Center
10:17AM 42.9111 -74.8158 103° East 297 342 11,100 -480 Descending Boston Center
10:18AM 42.8947 -74.7103 102° East 277 319 11,100  Level Boston Center
10:18AM 42.8947 -74.7103 102° East 272 313 11,100  Level Boston Center
10:19AM 42.8839 -74.6192 99° East 260 299 11,100  Level Boston Center
10:20AM 42.8628 -74.5164 106° East 260 299 11,100  Level Boston Center
10:21AM 42.8289 -74.4389 121° Southeast 260 299 11,100 -420 Level Boston Center
10:22AM 42.7867 -74.3414 121° Southeast 275 316 10,300 -1,320 Descending Boston Center
10:23AM 42.7506 -74.2581 121° Southeast 282 325 8,600 -1,860 Descending Boston Center
10:24AM 42.7083 -74.1553 119° Southeast 277 319 6,700 -1,680 Descending Boston Center
10:25AM 42.6722 -74.0722 121° Southeast 271 312 5,200 -1,380 Descending Boston Center
10:26AM 42.6378 -73.9925 120° Southeast 238 274 4,000 -600 Descending Boston Center
10:27AM 42.6056 -73.9183 121° Southeast 248 285 4,000 -600 Level Boston Center
10:28AM 42.5583 -73.8636 140° Southeast 210 242 2,800 -960 Descending Boston Center
10:29AM 42.5797 -73.8161 59° Northeast 147 169 2,100 -420 Descending Boston Center
10:30AM 42.6153 -73.7886 30° Northeast 137 158 2,000 -420 Descending Boston Center
10:32AM 42.6861 -73.8042 351° North 174 200 1,300 -720 Descending Boston Center
10:33AM 42.7297 -73.8081 356° North 144 166 500 -840 Descending Boston Center